Time;durP1;ratioP1;P1;durP2;ratioP2;P2;SDS_P1;SDS_P2;PMS_P1;PMS_P2;Temp;Humidity;BMP_temperature;BMP_pressure;BME280_temperature;BME280_humidity;BME280_pressure;Samples;Min_cycle;Max_cycle;Signal;HPM_P1;HPM_P2
2022/11/28 00:01:35;;;;;;;;;;;8.00;65.80;;;2.93;100.00;95474.19;4963572;28;20314;-51
2022/11/28 00:04:03;;;;;;;;;;;8.00;65.80;;;2.90;100.00;95466.72;4990190;28;20276;-53
2022/11/28 00:06:28;;;;;;;;;;;8.00;65.80;;;2.87;100.00;95465.34;4975159;28;19916;-55
2022/11/28 00:08:57;;;;;;;;;;;8.00;65.80;;;2.85;100.00;95463.94;4957356;28;19909;-54
2022/11/28 00:11:22;;;;;;;;;;;8.00;65.70;;;2.86;100.00;95462.94;4964968;28;20397;-54
2022/11/28 00:13:51;;;;;;;;;;;7.90;65.70;;;2.86;100.00;95466.38;4986470;28;19952;-55
2022/11/28 00:16:20;;;;;;;;;;;7.90;65.70;;;2.83;100.00;95461.53;4983768;28;19914;-56
2022/11/28 00:18:49;;;;;;;;;;;7.90;65.70;;;2.79;100.00;95455.13;4987930;28;19913;-58
2022/11/28 00:21:16;;;;;;;;;;;7.90;65.70;;;2.80;100.00;95443.56;4971899;28;19916;-58
2022/11/28 00:23:44;;;;;;;;;;;7.90;65.70;;;2.81;100.00;95445.16;4955580;28;20001;-52
2022/11/28 00:26:47;;;;;;;;;;;7.90;65.80;;;2.81;100.00;95439.91;4968538;28;20368;-54
2022/11/28 00:29:13;;;;;;;;;;;7.80;65.80;;;2.81;100.00;95436.47;4964311;28;20387;-54
2022/11/28 00:31:41;;;;;;;;;;;7.80;65.80;;;2.82;100.00;95435.44;4991568;28;19914;-56
2022/11/28 00:34:12;;;;;;;;;;;7.80;65.90;;;2.76;100.00;95431.88;4990928;28;19909;-56
2022/11/28 00:36:39;;;;;;;;;;;7.80;65.80;;;2.75;100.00;95427.63;4991732;28;19914;-55
2022/11/28 00:39:05;;;;;;;;;;;7.80;65.80;;;2.69;100.00;95418.78;4991014;28;19964;-53
2022/11/28 00:41:37;;;;;;;;;;;7.80;65.90;;;2.63;100.00;95413.59;4990948;28;19915;-52
2022/11/28 00:44:03;;;;;;;;;;;7.70;65.80;;;2.68;100.00;95409.28;4990179;28;19909;-52
2022/11/28 00:46:29;;;;;;;;;;;7.70;65.90;;;2.64;100.00;95404.69;4991005;28;20003;-52
2022/11/28 00:48:59;;;;;;;;;;;7.70;66.00;;;2.65;100.00;95395.78;4994612;28;19951;-52
2022/11/28 00:51:30;;;;;;;;;;;7.70;66.10;;;2.67;100.00;95402.44;4974930;28;20382;-53
2022/11/28 00:53:59;;;;;;;;;;;7.60;66.10;;;2.72;100.00;95393.88;4983117;28;19952;-51
2022/11/28 00:56:36;;;;;;;;;;;7.60;66.20;;;2.72;100.00;95392.03;4990061;28;19919;-54
2022/11/28 00:59:06;;;;;;;;;;;7.60;66.30;;;2.73;100.00;95395.50;4991081;28;19955;-56
2022/11/28 01:01:39;;;;;;;;;;;7.60;66.30;;;2.73;100.00;95398.94;4990068;28;19910;-54
2022/11/28 01:04:16;;;;;;;;;;;7.60;66.30;;;2.73;100.00;95403.38;4990311;28;20284;-56
2022/11/28 01:07:07;;;;;;;;;;;7.60;66.30;;;2.74;100.00;95402.34;4973046;28;19909;-57
2022/11/28 01:09:33;;;;;;;;;;;7.60;66.30;;;2.74;100.00;95399.72;4972845;28;19964;-56
2022/11/28 01:11:58;;;;;;;;;;;7.60;66.30;;;2.71;100.00;95398.31;4971208;28;19941;-54
2022/11/28 01:14:25;;;;;;;;;;;7.60;66.30;;;2.71;100.00;95403.59;4979093;28;20288;-57
2022/11/28 01:16:54;;;;;;;;;;;7.60;66.30;;;2.72;100.00;95409.66;4954621;28;19914;-56
2022/11/28 01:19:23;;;;;;;;;;;7.60;66.30;;;2.72;100.00;95412.28;4973450;28;19914;-56
2022/11/28 01:21:54;;;;;;;;;;;7.60;66.40;;;2.71;100.00;95418.56;4968527;28;19910;-57
2022/11/28 01:24:26;;;;;;;;;;;7.70;66.40;;;2.71;100.00;95421.19;4974178;28;20257;-56
2022/11/28 01:27:01;;;;;;;;;;;7.60;66.30;;;2.67;100.00;95420.84;4971589;28;19910;-57
2022/11/28 01:29:30;;;;;;;;;;;7.60;66.40;;;2.64;100.00;95405.50;4970478;28;19993;-56
2022/11/28 01:31:56;;;;;;;;;;;7.60;66.40;;;2.62;100.00;95404.91;4968510;28;20000;-54
2022/11/28 01:34:22;;;;;;;;;;;7.60;66.30;;;2.62;100.00;95402.28;4972039;28;19917;-58
2022/11/28 01:36:48;;;;;;;;;;;7.60;66.30;;;2.59;100.00;95400.06;4968902;28;20297;-56
2022/11/28 01:39:22;;;;;;;;;;;7.60;66.30;;;2.55;100.00;95391.03;4981082;28;20021;-55
2022/11/28 01:41:48;;;;;;;;;;;7.60;66.30;;;2.54;100.00;95398.13;4971640;28;20383;-51
2022/11/28 01:44:29;;;;;;;;;;;7.60;66.30;;;2.51;100.00;95390.66;4983090;28;19952;-52
2022/11/28 01:46:57;;;;;;;;;;;7.60;66.30;;;2.50;100.00;95398.75;4990108;28;19935;-56
2022/11/28 01:49:33;;;;;;;;;;;7.60;66.40;;;2.50;100.00;95396.94;4990212;28;20728;-51
2022/11/28 01:52:14;;;;;;;;;;;7.50;66.30;;;2.48;100.00;95403.44;4970449;28;19913;-56
2022/11/28 01:54:45;;;;;;;;;;;7.50;66.30;;;2.43;100.00;95409.34;4986130;28;19959;-55
2022/11/28 01:57:25;;;;;;;;;;;7.50;66.30;;;2.43;100.00;95401.44;4989942;28;19913;-53
2022/11/28 02:00:19;;;;;;;;;;;7.50;66.40;;;2.43;100.00;95395.41;4989891;28;19910;-53
2022/11/28 02:02:53;;;;;;;;;;;7.50;66.40;;;2.41;100.00;95387.72;4985412;28;20000;-52
2022/11/28 02:05:22;;;;;;;;;;;7.50;66.50;;;2.39;100.00;95391.59;4965853;28;19920;-53
2022/11/28 02:07:51;;;;;;;;;;;7.40;66.50;;;2.40;100.00;95390.56;4984439;28;19909;-56
2022/11/28 02:11:08;;;;;;;;;;;7.40;66.50;;;2.41;100.00;95386.91;4969989;28;20289;-55
2022/11/28 02:14:05;;;;;;;;;;;7.40;66.50;;;2.40;100.00;95396.63;4983410;28;19956;-53
2022/11/28 02:16:52;;;;;;;;;;;7.40;66.60;;;2.40;100.00;95390.56;4970525;28;19922;-55
2022/11/28 02:19:57;;;;;;;;;;;7.40;66.60;;;2.40;100.00;95386.13;4971181;28;19909;-57
2022/11/28 02:23:01;;;;;;;;;;;7.40;67.00;;;2.37;100.00;95391.81;4971252;28;19909;-56
2022/11/28 02:25:41;;;;;;;;;;;7.40;66.70;;;2.36;100.00;95399.94;4973900;28;19909;-54
2022/11/28 02:28:31;;;;;;;;;;;7.40;66.80;;;2.38;100.00;95393.41;4990928;28;19913;-54
2022/11/28 02:31:33;;;;;;;;;;;7.40;66.80;;;2.38;100.00;95388.16;4990372;28;19952;-55
2022/11/28 02:34:33;;;;;;;;;;;7.40;67.50;;;2.34;100.00;95376.47;4990711;28;19920;-54
2022/11/28 02:37:42;;;;;;;;;;;7.40;66.80;;;2.36;100.00;95377.06;4973609;28;20446;-54
2022/11/28 02:40:54;;;;;;;;;;;7.40;66.80;;;2.34;100.00;95371.22;4987754;28;19917;-54
2022/11/28 02:44:10;;;;;;;;;;;7.40;66.80;;;2.33;100.00;95363.56;4972000;28;19909;-56
2022/11/28 02:46:56;;;;;;;;;;;7.40;66.80;;;2.35;100.00;95362.31;4973128;28;19913;-50
2022/11/28 02:49:54;;;;;;;;;;;7.40;66.90;;;2.33;100.00;95361.72;4993234;28;20000;-52
2022/11/28 02:52:43;;;;;;;;;;;7.40;66.90;;;2.33;100.00;95364.34;4994028;28;19913;-53
2022/11/28 02:55:12;;;;;;;;;;;7.40;66.90;;;2.29;100.00;95363.19;4980690;28;20304;-55
2022/11/28 02:58:08;;;;;;;;;;;7.30;66.90;;;2.29;100.00;95344.78;4976966;28;19940;-53
2022/11/28 03:00:42;;;;;;;;;;;7.30;66.90;;;2.31;100.00;95333.00;4959984;28;19995;-54
2022/11/28 03:03:48;;;;;;;;;;;7.30;66.90;;;2.31;100.00;95333.00;4957853;28;19914;-53
2022/11/28 03:06:46;;;;;;;;;;;7.30;66.90;;;2.30;100.00;95328.78;4974558;28;19910;-53
2022/11/28 03:09:56;;;;;;;;;;;7.30;67.00;;;2.34;100.00;95330.97;4956843;28;20316;-52
2022/11/28 03:13:08;;;;;;;;;;;7.30;67.20;;;2.33;100.00;95332.00;4972601;28;19916;-52
2022/11/28 03:16:33;;;;;;;;;;;7.30;67.20;;;2.33;100.00;95321.50;4974243;28;19914;-55
2022/11/28 03:19:32;;;;;;;;;;;7.30;67.20;;;2.32;100.00;95328.59;4977082;28;19920;-55
2022/11/28 03:22:41;;;;;;;;;;;7.30;67.20;;;2.34;100.00;95328.34;4975751;28;19917;-53
2022/11/28 03:25:38;;;;;;;;;;;7.30;67.20;;;2.34;100.00;95326.53;4993003;28;19950;-56
2022/11/28 03:28:21;;;;;;;;;;;7.30;67.20;;;2.34;100.00;95329.16;4988090;28;19913;-56
2022/11/28 03:31:24;;;;;;;;;;;7.30;67.30;;;2.34;100.00;95323.91;4975158;28;20008;-54
2022/11/28 03:34:00;;;;;;;;;;;7.40;67.30;;;2.35;100.00;95325.53;4955536;28;19921;-57
2022/11/28 03:36:44;;;;;;;;;;;7.40;67.30;;;2.35;100.00;95322.88;4988495;28;19914;-55
2022/11/28 03:39:18;;;;;;;;;;;7.40;67.30;;;2.36;100.00;95318.44;4966979;28;19909;-55
2022/11/28 03:42:11;;;;;;;;;;;7.40;67.30;;;2.36;100.00;95313.97;4975986;28;20031;-56
2022/11/28 03:45:07;;;;;;;;;;;7.40;67.30;;;2.39;100.00;95315.38;4957688;28;20367;-57
2022/11/28 03:47:46;;;;;;;;;;;7.40;67.30;;;2.41;100.00;95311.47;4982675;28;19917;-56
2022/11/28 03:50:23;;;;;;;;;;;7.40;67.30;;;2.38;100.00;95308.47;4982135;28;20342;-55
2022/11/28 03:53:01;;;;;;;;;;;7.40;67.30;;;2.36;100.00;95308.72;4975859;28;19967;-53
2022/11/28 03:55:53;;;;;;;;;;;7.40;67.30;;;2.38;100.00;95298.75;4988762;28;19959;-52
2022/11/28 03:58:54;;;;;;;;;;;7.40;68.00;;;2.37;100.00;95296.38;4959166;28;20342;-52
2022/11/28 04:01:58;;;;;;;;;;;7.40;67.30;;;2.34;100.00;95296.81;4976378;28;19956;-56
2022/11/28 04:05:03;;;;;;;;;;;7.40;67.30;;;2.34;100.00;95294.19;4973402;28;19949;-57
2022/11/28 04:07:53;;;;;;;;;;;7.30;67.20;;;2.34;100.00;95299.44;4988194;28;19913;-56
2022/11/28 04:11:07;;;;;;;;;;;7.40;67.30;;;2.35;100.00;95296.59;4980642;28;19924;-58
2022/11/28 04:14:11;;;;;;;;;;;7.30;67.40;;;2.40;100.00;95301.19;4898280;29;19970;-51
2022/11/28 04:17:25;;;;;;;;;;;7.30;67.50;;;2.47;100.00;95302.72;4903443;29;19921;-55
2022/11/28 04:20:11;;;;;;;;;;;7.30;67.60;;;2.54;100.00;95298.19;4808521;29;19968;-55
2022/11/28 04:23:05;;;;;;;;;;;7.40;67.70;;;2.66;100.00;95294.81;4824329;29;20014;-58
2022/11/28 04:25:41;;;;;;;;;;;7.40;67.70;;;2.70;100.00;95309.13;4882064;29;19911;-57
2022/11/28 04:28:16;;;;;;;;;;;7.50;67.70;;;2.72;100.00;95302.59;4887128;29;20421;-53
2022/11/28 04:31:06;;;;;;;;;;;7.60;67.60;;;2.75;100.00;95298.72;4892823;29;21447;-57
2022/11/28 04:33:41;;;;;;;;;;;7.60;67.40;;;2.75;100.00;95306.63;4910244;29;20354;-57
2022/11/28 04:36:21;;;;;;;;;;;7.60;67.40;;;2.74;100.00;95300.56;4879408;29;19918;-55
2022/11/28 04:38:55;;;;;;;;;;;7.70;67.50;;;2.76;100.00;95300.34;4877450;29;20429;-57
2022/11/28 04:42:09;;;;;;;;;;;7.70;67.40;;;2.77;100.00;95296.69;4879142;29;19915;-57
2022/11/28 04:44:58;;;;;;;;;;;7.70;67.30;;;2.77;100.00;95294.06;4941361;28;19909;-52
2022/11/28 04:47:43;;;;;;;;;;;7.70;67.20;;;2.75;100.00;95294.28;4990735;28;19991;-51
2022/11/28 04:50:16;;;;;;;;;;;7.80;67.20;;;2.76;100.00;95295.91;4966260;28;19920;-53
2022/11/28 04:53:11;;;;;;;;;;;7.70;67.20;;;2.75;100.00;95296.09;4973772;28;20292;-56
2022/11/28 04:56:06;;;;;;;;;;;7.70;67.10;;;2.74;100.00;95295.31;4946462;28;19949;-52
2022/11/28 04:58:45;;;;;;;;;;;7.70;67.10;;;2.73;100.00;95295.53;4962165;28;19949;-54
2022/11/28 05:01:42;;;;;;;;;;;7.70;67.10;;;2.72;100.00;95292.09;4969412;28;20398;-54
2022/11/28 05:04:13;;;;;;;;;;;7.70;67.10;;;2.70;100.00;95299.41;4972848;28;19909;-55
2022/11/28 05:06:39;;;;;;;;;;;7.70;67.10;;;2.69;100.00;95289.09;4962580;28;20303;-57
2022/11/28 05:09:09;;;;;;;;;;;7.70;67.20;;;2.70;100.00;95290.72;4983845;28;19909;-53
2022/11/28 05:11:35;;;;;;;;;;;7.70;67.10;;;2.72;100.00;95291.28;4974313;28;20321;-55
2022/11/28 05:14:03;;;;;;;;;;;7.60;67.10;;;2.70;100.00;95281.00;4990536;28;19917;-53
2022/11/28 05:16:32;;;;;;;;;;;7.60;67.10;;;2.70;100.00;95277.56;4957906;28;19944;-55
2022/11/28 05:18:57;;;;;;;;;;;7.60;67.10;;;2.68;100.00;95275.16;4972476;28;19909;-54
2022/11/28 05:21:32;;;;;;;;;;;7.60;67.90;;;2.66;100.00;95279.03;4982806;28;19921;-56
2022/11/28 05:24:01;;;;;;;;;;;7.60;67.10;;;2.67;100.00;95286.69;4985303;28;19910;-54
2022/11/28 05:26:31;;;;;;;;;;;7.60;67.10;;;2.67;100.00;95291.16;4959810;28;19909;-52
2022/11/28 05:28:57;;;;;;;;;;;7.60;67.10;;;2.67;100.00;95289.34;4990659;28;20340;-52
2022/11/28 05:31:29;;;;;;;;;;;7.60;67.20;;;2.68;100.00;95287.50;4972667;28;19960;-52
2022/11/28 05:33:56;;;;;;;;;;;7.60;67.10;;;2.69;100.00;95297.78;4986368;28;19909;-53
2022/11/28 05:36:22;;;;;;;;;;;7.60;67.10;;;2.67;100.00;95289.34;4965913;28;19913;-53
2022/11/28 05:38:49;;;;;;;;;;;7.60;67.20;;;2.65;100.00;95282.69;4963074;28;19916;-52
2022/11/28 05:41:28;;;;;;;;;;;7.60;67.10;;;2.67;100.00;95278.00;4973962;28;19914;-52
2022/11/28 05:43:56;;;;;;;;;;;7.60;67.10;;;2.67;100.00;95288.53;4973401;28;19913;-55
2022/11/28 05:46:31;;;;;;;;;;;7.60;67.10;;;2.65;100.00;95285.31;4978202;28;19920;-54
2022/11/28 05:48:57;;;;;;;;;;;7.60;67.10;;;2.66;100.00;95285.06;4972192;28;19975;-55
2022/11/28 05:51:23;;;;;;;;;;;7.60;67.10;;;2.66;100.00;95290.34;4988421;28;19917;-57
2022/11/28 05:53:49;;;;;;;;;;;7.60;67.10;;;2.66;100.00;95287.72;4982883;28;20013;-53
2022/11/28 05:56:18;;;;;;;;;;;7.60;67.10;;;2.61;100.00;95281.53;4984115;28;19916;-56
2022/11/28 05:58:47;;;;;;;;;;;7.60;67.10;;;2.65;100.00;95277.44;4973497;28;19909;-53
2022/11/28 06:01:28;;;;;;;;;;;7.60;67.20;;;2.63;100.00;95267.13;4984696;28;20347;-55
2022/11/28 06:04:00;;;;;;;;;;;7.60;67.10;;;2.63;100.00;95275.00;4989880;28;19920;-52
2022/11/28 06:06:33;;;;;;;;;;;7.60;67.20;;;2.64;100.00;95273.19;4962540;28;19952;-54
2022/11/28 06:08:59;;;;;;;;;;;7.60;68.00;;;2.65;99.81;95272.16;4971966;28;19972;-57
2022/11/28 06:11:34;;;;;;;;;;;7.60;67.30;;;2.69;99.75;95275.94;4976814;28;19916;-57
2022/11/28 06:14:02;;;;;;;;;;;7.50;67.20;;;2.65;99.32;95272.16;4990239;28;19909;-56
2022/11/28 06:16:30;;;;;;;;;;;7.60;67.20;;;2.62;98.65;95283.13;4976775;28;19913;-56
2022/11/28 06:19:03;;;;;;;;;;;7.60;67.20;;;2.70;98.09;95278.38;4971984;28;19940;-58
2022/11/28 06:21:30;;;;;;;;;;;7.60;67.20;;;2.70;99.03;95272.31;4954176;28;20296;-57
2022/11/28 06:23:58;;;;;;;;;;;7.60;67.20;;;2.70;98.76;95275.75;4954115;28;19913;-58
2022/11/28 06:26:28;;;;;;;;;;;7.60;68.00;;;2.73;98.50;95285.81;4989604;28;20376;-58
2022/11/28 06:29:03;;;;;;;;;;;7.60;67.10;;;2.71;97.76;95279.97;4991961;28;20383;-57
2022/11/28 06:31:30;;;;;;;;;;;7.60;67.10;;;2.70;97.24;95272.31;4944784;28;20339;-56
2022/11/28 06:33:57;;;;;;;;;;;7.60;67.10;;;2.73;96.91;95288.44;4972461;28;20384;-57
2022/11/28 06:36:25;;;;;;;;;;;7.60;67.00;;;2.74;96.37;95289.25;4984631;28;19925;-58
2022/11/28 06:38:51;;;;;;;;;;;7.60;67.00;;;2.73;95.50;95288.44;4970899;28;19963;-57
2022/11/28 06:41:19;;;;;;;;;;;7.60;67.10;;;2.80;95.68;95282.31;4966339;28;20360;-57
2022/11/28 06:43:45;;;;;;;;;;;7.60;67.00;;;2.82;95.63;95288.13;4964363;28;19918;-58
2022/11/28 06:46:26;;;;;;;;;;;7.60;67.00;;;2.81;94.97;95287.31;4984056;28;19960;-58
2022/11/28 06:48:52;;;;;;;;;;;7.70;67.00;;;2.81;94.23;95281.25;4972459;28;19913;-58
2022/11/28 06:51:19;;;;;;;;;;;7.70;67.00;;;2.85;95.20;95271.88;4981460;28;19914;-58
2022/11/28 06:53:45;;;;;;;;;;;7.70;66.90;;;2.81;95.63;95273.38;4987519;28;19916;-58
2022/11/28 06:56:15;;;;;;;;;;;7.70;66.90;;;2.80;94.99;95283.09;4973673;28;19961;-57
2022/11/28 06:58:41;;;;;;;;;;;7.70;66.80;;;2.83;94.07;95280.03;4975200;28;19916;-56
2022/11/28 07:01:12;;;;;;;;;;;7.70;66.80;;;2.85;93.57;95274.53;4989462;28;19913;-58
2022/11/28 07:03:39;;;;;;;;;;;7.70;66.90;;;2.89;94.19;95271.25;4957378;28;19949;-58
2022/11/28 07:06:07;;;;;;;;;;;7.70;66.80;;;2.96;93.60;95284.28;4973537;28;19909;-57
2022/11/28 07:08:34;;;;;;;;;;;7.80;66.90;;;2.99;93.07;95289.13;4970189;28;20384;-53
2022/11/28 07:11:20;;;;;;;;;;;7.80;66.80;;;2.97;93.05;95289.31;4977855;28;20320;-58
2022/11/28 07:13:47;;;;;;;;;;;7.90;66.80;;;3.04;93.95;95291.06;4983149;28;19910;-56
2022/11/28 07:16:17;;;;;;;;;;;8.00;66.70;;;3.06;94.33;95287.19;4955215;28;20280;-54
2022/11/28 07:18:44;;;;;;;;;;;7.90;66.60;;;3.06;94.22;95292.44;4965625;28;19956;-57
2022/11/28 07:21:11;;;;;;;;;;;8.00;66.60;;;3.10;94.77;95290.16;4974968;28;19920;-57
2022/11/28 07:23:37;;;;;;;;;;;8.00;66.50;;;3.12;94.36;95290.75;4974738;28;19964;-55
2022/11/28 07:26:04;;;;;;;;;;;8.00;66.40;;;3.15;94.19;95295.56;4971975;28;19917;-50
2022/11/28 07:28:34;;;;;;;;;;;8.10;66.40;;;3.16;93.94;95294.53;4978508;28;19914;-58
2022/11/28 07:31:06;;;;;;;;;;;8.10;66.30;;;3.16;93.87;95297.97;4918794;28;251716;-58
2022/11/28 07:33:37;;;;;;;;;;;8.10;66.30;;;3.16;94.44;95297.97;4997403;28;19963;-55
2022/11/28 07:36:09;;;;;;;;;;;8.20;66.30;;;3.20;94.65;95300.97;4990925;28;20417;-55
2022/11/28 07:38:35;;;;;;;;;;;8.20;66.20;;;3.20;94.77;95293.88;5004446;28;19928;-57
2022/11/28 07:41:09;;;;;;;;;;;8.30;66.20;;;3.23;95.00;95297.88;4992841;28;19959;-58
2022/11/28 07:43:35;;;;;;;;;;;8.30;66.10;;;3.21;94.60;95290.19;4994466;28;19913;-57
2022/11/28 07:46:08;;;;;;;;;;;8.30;66.10;;;3.25;94.76;95293.97;4994602;28;19995;-54
2022/11/28 07:48:35;;;;;;;;;;;8.30;66.00;;;3.30;94.25;95295.16;4993777;28;19979;-57
2022/11/28 07:51:22;;;;;;;;;;;8.40;66.00;;;3.33;94.83;95295.50;4999054;28;19959;-58
2022/11/28 07:53:51;;;;;;;;;;;8.40;66.00;;;3.35;94.54;95293.44;4983559;28;19913;-57
2022/11/28 07:56:24;;;;;;;;;;;8.40;65.90;;;3.38;94.97;95289.53;4973151;28;19913;-58
2022/11/28 07:58:51;;;;;;;;;;;8.50;65.90;;;3.42;94.94;95293.34;4978598;28;19916;-58
2022/11/28 08:01:24;;;;;;;;;;;8.50;65.80;;;3.45;94.70;95288.44;5007427;28;19917;-58
2022/11/28 08:03:51;;;;;;;;;;;8.60;65.90;;;3.50;94.90;95290.38;4993190;28;19917;-57
2022/11/28 08:06:21;;;;;;;;;;;8.70;65.80;;;3.55;94.07;95297.59;5008859;28;19908;-58
2022/11/28 08:08:48;;;;;;;;;;;8.70;65.70;;;3.60;94.03;95297.72;4993946;28;19909;-58
2022/11/28 08:11:16;;;;;;;;;;;8.80;65.70;;;3.61;94.11;95286.97;4994385;28;19924;-53
2022/11/28 08:13:43;;;;;;;;;;;8.90;65.70;;;3.69;93.81;95291.88;4994044;28;19913;-58
2022/11/28 08:16:24;;;;;;;;;;;8.90;65.60;;;3.81;93.79;95294.53;5010954;28;19913;-57
2022/11/28 08:18:51;;;;;;;;;;;9.00;65.60;;;3.87;93.67;95308.63;4993612;28;20050;-55
2022/11/28 08:21:22;;;;;;;;;;;9.10;65.50;;;3.94;93.36;95307.47;4992775;28;19909;-58
2022/11/28 08:23:53;;;;;;;;;;;9.20;65.50;;;3.96;93.64;95301.97;4992559;28;19910;-54
2022/11/28 08:26:25;;;;;;;;;;;9.30;65.50;;;4.04;94.15;95298.19;4994210;28;19913;-58
2022/11/28 08:29:02;;;;;;;;;;;9.40;65.40;;;4.11;93.93;95306.78;4996478;28;19944;-55
2022/11/28 08:31:36;;;;;;;;;;;9.50;65.40;;;4.18;93.12;95303.00;4993902;28;19909;-58
2022/11/28 08:34:07;;;;;;;;;;;9.50;65.30;;;4.27;92.67;95294.75;5011128;28;19909;-57
2022/11/28 08:36:33;;;;;;;;;;;9.60;65.20;;;4.35;91.41;95291.72;4994423;28;20429;-53
2022/11/28 08:39:05;;;;;;;;;;;9.70;65.10;;;4.41;91.74;95283.69;4993467;28;19913;-55
2022/11/28 08:41:34;;;;;;;;;;;9.80;65.00;;;4.49;90.81;95287.03;4994795;28;20315;-54
2022/11/28 08:43:59;;;;;;;;;;;9.90;65.00;;;4.56;91.11;95285.84;4993961;28;19913;-58
2022/11/28 08:46:28;;;;;;;;;;;10.00;64.90;;;4.64;91.44;95289.97;5011161;28;19931;-57
2022/11/28 08:49:00;;;;;;;;;;;10.00;64.80;;;4.71;89.74;95293.25;4992409;28;19912;-56
2022/11/28 08:51:26;;;;;;;;;;;10.10;64.70;;;4.79;86.40;95282.31;4997285;28;19913;-58
2022/11/28 08:53:55;;;;;;;;;;;10.10;64.60;;;4.82;80.09;95287.13;5007252;28;19921;-58
2022/11/28 08:56:33;;;;;;;;;;;10.20;64.50;;;5.01;82.85;95295.66;5003949;28;19909;-58
2022/11/28 08:58:59;;;;;;;;;;;10.30;64.50;;;5.13;83.00;95292.19;4976964;28;20007;-57
2022/11/28 09:01:34;;;;;;;;;;;10.40;64.40;;;5.22;83.90;95288.13;4989156;28;20008;-58
2022/11/28 09:04:03;;;;;;;;;;;10.50;64.30;;;5.29;81.56;95284.28;4986398;28;19909;-58
2022/11/28 09:06:29;;;;;;;;;;;10.50;64.40;;;5.36;80.60;95280.69;4994199;28;19913;-57
2022/11/28 09:08:58;;;;;;;;;;;10.60;64.10;;;5.46;82.24;95283.50;4989548;28;19916;-60
2022/11/28 09:11:26;;;;;;;;;;;10.70;63.90;;;5.53;79.06;95284.16;5009626;28;20030;-57
2022/11/28 09:13:55;;;;;;;;;;;10.80;63.80;;;5.62;80.80;95280.06;4992685;28;20624;-58
2022/11/28 09:16:21;;;;;;;;;;;10.90;63.60;;;5.70;79.90;95276.22;4994275;28;20311;-55
2022/11/28 09:18:47;;;;;;;;;;;11.00;64.30;;;5.72;77.87;95277.56;4970460;28;19916;-58
2022/11/28 09:21:16;;;;;;;;;;;11.10;63.30;;;5.80;76.09;95276.38;5010009;28;19916;-58
2022/11/28 09:23:50;;;;;;;;;;;11.20;63.20;;;5.89;75.29;95279.41;5011302;28;20279;-58
2022/11/28 09:26:23;;;;;;;;;;;11.20;63.00;;;5.99;75.75;95280.41;4992779;28;19916;-58
2022/11/28 09:28:50;;;;;;;;;;;11.30;62.80;;;6.07;73.16;95273.88;4993011;28;19917;-57
2022/11/28 09:31:17;;;;;;;;;;;11.40;62.70;;;6.13;72.68;95266.81;4981926;28;19952;-57
2022/11/28 09:33:45;;;;;;;;;;;11.40;62.60;;;6.18;69.18;95266.91;5010173;28;19944;-57
2022/11/28 09:36:16;;;;;;;;;;;11.50;62.50;;;6.26;70.29;95269.09;5011087;28;20323;-58
2022/11/28 09:38:41;;;;;;;;;;;11.60;62.30;;;6.37;71.38;95276.16;4976554;28;19909;-58
2022/11/28 09:41:50;;;;;;;;;;;11.60;62.10;;;6.48;69.90;95269.13;5010838;28;19909;-53
2022/11/28 09:44:42;;;;;;;;;;;11.70;61.90;;;6.47;63.98;95270.19;4998249;28;19913;-58
2022/11/28 09:47:33;;;;;;;;;;;11.80;61.80;;;6.65;69.01;95264.56;5005789;28;19951;-58
2022/11/28 09:50:15;;;;;;;;;;;11.90;61.50;;;6.76;68.04;95262.03;4992891;28;19970;-57
2022/11/28 09:53:27;;;;;;;;;;;12.00;61.40;;;6.87;68.74;95269.84;5010907;28;19909;-57
2022/11/28 09:56:14;;;;;;;;;;;12.10;61.20;;;6.95;69.83;95264.09;5009873;28;20303;-53
2022/11/28 09:59:02;;;;;;;;;;;12.20;61.00;;;7.09;71.20;95263.72;4999994;28;19963;-54
2022/11/28 10:02:03;;;;;;;;;;;12.40;60.90;;;7.16;70.29;95256.38;4992990;28;20376;-53
2022/11/28 10:04:55;;;;;;;;;;;12.50;60.80;;;7.27;72.56;95259.91;4995643;28;20008;-56
2022/11/28 10:08:12;;;;;;;;;;;12.70;60.60;;;7.39;72.16;95253.38;4996095;28;20004;-56
2022/11/28 10:11:21;;;;;;;;;;;12.80;60.50;;;7.49;71.38;95252.69;4995463;28;19917;-54
2022/11/28 10:14:31;;;;;;;;;;;13.00;60.30;;;7.60;71.96;95254.34;4994843;28;19909;-51
2022/11/28 10:17:36;;;;;;;;;;;13.20;60.00;;;7.75;71.52;95250.25;4994917;28;19917;-50
2022/11/28 10:20:14;;;;;;;;;;;13.30;59.90;;;7.83;72.30;95247.09;5003565;28;19954;-51
2022/11/28 10:22:53;;;;;;;;;;;13.40;59.80;;;7.88;73.53;95244.50;4996743;28;19941;-52
2022/11/28 10:26:04;;;;;;;;;;;13.60;59.70;;;8.02;72.84;95250.13;4995826;28;19912;-49
2022/11/28 10:28:38;;;;;;;;;;;13.70;59.50;;;8.11;71.57;95241.44;5007306;28;19948;-53
2022/11/28 10:31:32;;;;;;;;;;;13.80;59.40;;;8.21;71.58;95248.69;4984684;28;22229;-53
2022/11/28 10:34:07;;;;;;;;;;;14.00;59.40;;;8.26;71.56;95245.25;4996266;28;19916;-52
2022/11/28 10:36:46;;;;;;;;;;;14.10;59.20;;;8.40;71.00;95237.63;5008300;28;20368;-54
2022/11/28 10:39:13;;;;;;;;;;;14.20;59.10;;;8.47;72.42;95243.53;4996249;28;19958;-51
2022/11/28 10:42:12;;;;;;;;;;;14.30;58.90;;;8.60;71.58;95236.94;4996283;28;20332;-52
2022/11/28 10:45:15;;;;;;;;;;;14.40;58.80;;;8.66;72.88;95234.03;5012026;28;20298;-50
2022/11/28 10:48:27;;;;;;;;;;;14.50;58.70;;;8.72;72.74;95229.53;5002214;28;19909;-50
2022/11/28 10:51:17;;;;;;;;;;;14.60;58.60;;;8.83;71.87;95225.03;5001111;28;19913;-51
2022/11/28 10:54:39;;;;;;;;;;;14.80;58.50;;;8.89;71.40;95222.13;4997183;28;20016;-53
2022/11/28 10:57:28;;;;;;;;;;;14.90;58.50;;;9.08;70.85;95216.34;4993007;28;19940;-52
2022/11/28 11:00:12;;;;;;;;;;;15.00;58.90;;;9.21;71.22;95221.13;4995114;28;19913;-53
2022/11/28 11:02:48;;;;;;;;;;;15.10;58.20;;;9.32;68.70;95208.66;4995277;28;20387;-50
2022/11/28 11:05:34;;;;;;;;;;;15.20;58.10;;;9.48;67.34;95210.25;4995542;28;20003;-54
2022/11/28 11:08:18;;;;;;;;;;;15.30;58.00;;;9.57;70.30;95206.00;4977597;28;19931;-53
2022/11/28 11:11:10;;;;;;;;;;;15.50;57.90;;;9.58;71.41;95212.09;4994736;28;20173;-51
2022/11/28 11:14:02;;;;;;;;;;;15.60;57.80;;;9.56;73.00;95206.25;5011637;28;19913;-50
2022/11/28 11:17:05;;;;;;;;;;;15.80;57.60;;;9.60;71.89;95208.13;5012971;28;20022;-51
2022/11/28 11:19:38;;;;;;;;;;;15.80;57.40;;;9.65;70.74;95200.16;4994396;28;19909;-50
2022/11/28 11:22:24;;;;;;;;;;;15.90;57.30;;;9.78;70.43;95197.97;4985806;28;19963;-53
2022/11/28 11:25:14;;;;;;;;;;;15.90;57.20;;;9.81;71.33;95200.09;5009979;28;20003;-54
2022/11/28 11:28:03;;;;;;;;;;;16.00;57.10;;;9.86;73.02;95197.44;4994104;28;19932;-55
2022/11/28 11:30:41;;;;;;;;;;;16.00;57.10;;;10.00;71.31;95192.34;4994909;28;19917;-53
2022/11/28 11:33:16;;;;;;;;;;;16.10;57.20;;;10.12;62.59;95185.69;4995828;28;19916;-54
2022/11/28 11:35:47;;;;;;;;;;;16.30;57.10;;;10.22;60.79;95181.41;4995098;28;19935;-50
2022/11/28 11:38:19;;;;;;;;;;;16.40;56.90;;;10.36;63.86;95187.75;5010572;28;19917;-52
2022/11/28 11:40:51;;;;;;;;;;;16.50;56.70;;;10.36;59.00;95185.09;4998936;28;19913;-56
2022/11/28 11:43:36;;;;;;;;;;;16.60;56.60;;;10.44;59.13;95178.44;4988837;28;19909;-55
2022/11/28 11:46:09;;;;;;;;;;;16.60;56.40;;;10.55;58.53;95179.97;5012704;28;20012;-49
2022/11/28 11:48:40;;;;;;;;;;;16.70;56.20;;;10.65;56.88;95178.06;4962443;28;19959;-52
2022/11/28 11:51:31;;;;;;;;;;;16.60;56.00;;;10.70;55.43;95171.09;4994893;28;19944;-56
2022/11/28 11:54:12;;;;;;;;;;;16.70;55.90;;;10.65;54.74;95174.56;5011607;28;20372;-53
2022/11/28 11:56:45;;;;;;;;;;;16.70;55.70;;;10.70;57.14;95171.91;4995111;28;19966;-55
2022/11/28 11:59:48;;;;;;;;;;;16.70;55.50;;;10.76;54.95;95173.47;4979227;28;19909;-53
2022/11/28 12:02:54;;;;;;;;;;;16.70;55.40;;;10.80;52.96;95169.16;5004038;28;19915;-51
2022/11/28 12:05:33;;;;;;;;;;;16.70;55.20;;;10.78;54.61;95181.16;4966752;28;25472;-50
2022/11/28 12:08:16;;;;;;;;;;;16.70;55.00;;;10.70;54.93;95174.56;5009096;28;19974;-51
2022/11/28 12:10:54;;;;;;;;;;;16.70;54.80;;;10.75;54.30;95171.88;4998430;28;19925;-55
2022/11/28 12:13:23;;;;;;;;;;;16.60;54.70;;;10.76;57.89;95176.13;5011996;28;19912;-52
2022/11/28 12:16:43;;;;;;;;;;;16.60;54.60;;;10.79;54.58;95169.44;5022314;28;19913;-50
2022/11/28 12:19:50;;;;;;;;;;;16.60;54.60;;;10.75;57.83;95168.38;5022696;28;20267;-55
2022/11/28 12:22:31;;;;;;;;;;;16.60;54.50;;;10.75;54.97;95168.38;5001166;28;20376;-51